createdAt,value
2022-12-18T00:01:32.241Z,102453.38
2022-12-18T00:04:00.378Z,102454.88
2022-12-18T00:06:30.403Z,102449.41
2022-12-18T00:08:59.446Z,102445.78
2022-12-18T00:11:30.760Z,102440.75
2022-12-18T00:14:00.505Z,102433.63
2022-12-18T00:16:29.773Z,102440.16
2022-12-18T00:19:00.501Z,102440.72
2022-12-18T00:21:29.349Z,102438.94
2022-12-18T00:23:57.209Z,102445.88
2022-12-18T00:26:26.858Z,102442.56
2022-12-18T00:29:02.602Z,102452.09
2022-12-18T00:31:32.601Z,102456.97
2022-12-18T00:34:02.579Z,102461.03
2022-12-18T00:36:32.702Z,102453.19
2022-12-18T00:39:01.802Z,102466.06
2022-12-18T00:41:47.938Z,102453.19
2022-12-18T00:44:18.975Z,102448.16
2022-12-18T00:46:48.468Z,102442.09
2022-12-18T00:49:17.466Z,102448.16
2022-12-18T00:51:45.247Z,102452.41
2022-12-18T00:54:13.267Z,102439.34
2022-12-18T00:56:48.263Z,102443.31
2022-12-18T00:59:18.932Z,102447.44
2022-12-18T01:01:47.531Z,102454.09
2022-12-18T01:04:16.137Z,102455.75
2022-12-18T01:06:46.763Z,102465.16
2022-12-18T01:09:14.772Z,102472.16
2022-12-18T01:11:42.551Z,102468.50
2022-12-18T01:14:12.425Z,102466.53
2022-12-18T01:16:41.642Z,102473.03
2022-12-18T01:19:09.489Z,102468.78
2022-12-18T01:21:37.211Z,102478.50
2022-12-18T01:24:06.695Z,102473.50
2022-12-18T01:26:35.046Z,102476.84
2022-12-18T01:29:02.843Z,102486.41
2022-12-18T01:31:32.664Z,102495.03
2022-12-18T01:34:05.946Z,102489.72
2022-12-18T01:36:38.239Z,102491.25
2022-12-18T01:39:11.671Z,102489.41
2022-12-18T01:41:57.388Z,102495.34
2022-12-18T01:44:54.598Z,102495.16
2022-12-18T01:47:25.528Z,102494.41
2022-12-18T01:49:55.626Z,102512.28
2022-12-18T01:52:24.411Z,102507.75
2022-12-18T01:54:53.931Z,102518.94
2022-12-18T01:57:24.078Z,102513.06
2022-12-18T01:59:55.176Z,102508.63
2022-12-18T02:02:23.442Z,102517.28
2022-12-18T02:04:51.282Z,102519.09
2022-12-18T02:07:30.658Z,102508.81
2022-12-18T02:10:02.252Z,102509.69
2022-12-18T02:12:37.240Z,102510.47
2022-12-18T02:15:11.698Z,102521.69
2022-12-18T02:17:45.067Z,102516.38
2022-12-18T02:20:18.946Z,102511.06
2022-12-18T02:23:01.421Z,102500.59
2022-12-18T02:25:47.327Z,102512.56
2022-12-18T02:28:22.695Z,102492.56
2022-12-18T02:30:55.650Z,102497.72
2022-12-18T02:33:25.524Z,102489.84
2022-12-18T02:35:56.068Z,102491.63
2022-12-18T02:38:25.337Z,102484.69
2022-12-18T02:40:55.779Z,102498.47
2022-12-18T02:43:25.320Z,102490.00
2022-12-18T02:45:58.096Z,102490.88
2022-12-18T02:48:31.134Z,102485.91
2022-12-18T02:51:10.307Z,102478.16
2022-12-18T02:53:45.759Z,102483.47
2022-12-18T02:56:19.316Z,102494.69
2022-12-18T02:59:00.473Z,102496.38
2022-12-18T03:01:45.269Z,102493.00
2022-12-18T03:04:18.730Z,102496.53
2022-12-18T03:06:50.994Z,102497.44
2022-12-18T03:09:23.733Z,102500.00
2022-12-18T03:12:16.614Z,102493.78
2022-12-18T03:14:48.102Z,102493.78
2022-12-18T03:17:19.847Z,102502.25
2022-12-18T03:19:48.957Z,102512.72
2022-12-18T03:22:18.325Z,102517.00
2022-12-18T03:24:50.976Z,102520.13
2022-12-18T03:27:25.366Z,102527.72
2022-12-18T03:30:08.317Z,102530.75
2022-12-18T03:32:44.411Z,102529.97
2022-12-18T03:35:15.065Z,102523.00
2022-12-18T03:37:43.761Z,102527.25
2022-12-18T03:40:12.239Z,102526.94
2022-12-18T03:42:48.224Z,102514.78
2022-12-18T03:45:24.350Z,102517.22
2022-12-18T03:48:01.689Z,102525.72
2022-12-18T03:50:42.306Z,102525.38
2022-12-18T03:53:25.995Z,102526.75
2022-12-18T03:55:54.511Z,102527.47
2022-12-18T03:58:26.850Z,102508.53
2022-12-18T04:01:07.631Z,102510.97
2022-12-18T04:03:37.814Z,102516.84
2022-12-18T04:06:09.516Z,102518.53
2022-12-18T04:08:40.975Z,102514.28
2022-12-18T04:11:11.129Z,102515.94
2022-12-18T04:13:41.333Z,102496.84
2022-12-18T04:16:17.216Z,102491.69
2022-12-18T04:18:46.602Z,102496.84
2022-12-18T04:21:16.099Z,102505.31
2022-12-18T04:23:43.894Z,102504.56
2022-12-18T04:26:12.141Z,102505.31
2022-12-18T04:29:10.570Z,102491.53
2022-12-18T04:31:40.026Z,102486.22
2022-12-18T04:34:08.532Z,102489.41
2022-12-18T04:36:42.166Z,102485.72
2022-12-18T04:39:10.050Z,102491.50
2022-12-18T04:41:37.835Z,102493.00
2022-12-18T04:44:06.755Z,102493.91
2022-12-18T04:46:34.711Z,102497.84
2022-12-18T04:49:03.871Z,102506.13
2022-12-18T04:51:31.648Z,102519.94
2022-12-18T04:53:59.510Z,102531.16
2022-12-18T04:56:27.339Z,102528.41
2022-12-18T04:58:55.178Z,102527.50
2022-12-18T05:01:23.040Z,102532.66
2022-12-18T05:03:50.996Z,102533.41
2022-12-18T05:06:20.236Z,102529.16
2022-12-18T05:08:48.172Z,102536.88
2022-12-18T05:11:17.581Z,102546.44
2022-12-18T05:13:46.111Z,102543.88
2022-12-18T05:16:15.198Z,102550.69
2022-12-18T05:18:43.247Z,102541.28
2022-12-18T05:21:11.007Z,102542.97
2022-12-18T05:23:40.579Z,102544.59
2022-12-18T05:26:09.460Z,102535.22
2022-12-18T05:28:38.474Z,102534.47
2022-12-18T05:31:07.110Z,102537.03
2022-12-18T05:33:36.841Z,102532.81
2022-12-18T05:36:06.482Z,102532.06
2022-12-18T05:38:36.356Z,102536.47
2022-12-18T05:41:06.622Z,102536.63
2022-12-18T05:43:37.022Z,102538.28
2022-12-18T05:46:09.028Z,102535.69
2022-12-18T05:48:37.006Z,102539.22
2022-12-18T05:51:10.184Z,102536.63
2022-12-18T05:53:39.610Z,102540.09
2022-12-18T05:56:11.666Z,102543.59
2022-12-18T05:58:39.646Z,102559.22
2022-12-18T06:01:14.565Z,102555.00
2022-12-18T06:03:43.015Z,102557.41
2022-12-18T06:06:18.885Z,102561.63
2022-12-18T06:08:47.162Z,102555.41
2022-12-18T06:11:19.249Z,102550.25
2022-12-18T06:13:47.529Z,102550.09
2022-12-18T06:16:15.323Z,102559.47
2022-12-18T06:18:43.169Z,102546.13
2022-12-18T06:21:10.984Z,102549.28
2022-12-18T06:23:39.339Z,102550.81
2022-12-18T06:26:08.729Z,102546.97
2022-12-18T06:28:37.861Z,102547.56
2022-12-18T06:31:06.774Z,102546.34
2022-12-18T06:33:34.963Z,102549.47
2022-12-18T06:36:04.337Z,102542.19
2022-12-18T06:38:33.366Z,102553.06
2022-12-18T06:41:01.154Z,102556.25
2022-12-18T06:43:28.973Z,102556.81
2022-12-18T06:46:01.840Z,102562.56
2022-12-18T06:48:29.846Z,102562.97
2022-12-18T06:50:57.874Z,102564.47
2022-12-18T06:53:25.946Z,102572.78
2022-12-18T06:55:53.718Z,102569.16
2022-12-18T06:58:21.519Z,102564.56
2022-12-18T07:00:49.494Z,102570.44
2022-12-18T07:03:18.601Z,102572.13
2022-12-18T07:05:46.342Z,102572.72
2022-12-18T07:08:14.056Z,102579.50
2022-12-18T07:10:48.216Z,102583.56
2022-12-18T07:13:17.888Z,102576.63
2022-12-18T07:15:45.942Z,102589.31
2022-12-18T07:18:13.675Z,102588.22
2022-12-18T07:20:42.843Z,102591.38
2022-12-18T07:23:10.718Z,102599.84
2022-12-18T07:25:38.756Z,102603.19
2022-12-18T07:28:06.992Z,102607.25
2022-12-18T07:30:34.909Z,102614.97
2022-12-18T07:33:02.732Z,102617.38
2022-12-18T07:35:30.665Z,102619.19
2022-12-18T07:37:59.961Z,102636.28
2022-12-18T07:40:29.164Z,102630.97
2022-12-18T07:42:56.910Z,102629.91
2022-12-18T07:45:24.681Z,102630.63
2022-12-18T07:47:52.572Z,102635.59
2022-12-18T07:50:20.818Z,102624.22
2022-12-18T07:52:48.594Z,102630.28
2022-12-18T07:55:17.867Z,102624.22
2022-12-18T07:57:51.389Z,102624.84
2022-12-18T08:00:20.864Z,102633.28
2022-12-18T08:02:49.329Z,102635.69
2022-12-18T08:05:17.230Z,102645.81
2022-12-18T08:07:44.974Z,102662.91
2022-12-18T08:10:12.826Z,102653.16
2022-12-18T08:12:42.018Z,102667.88
2022-12-18T08:15:10.559Z,102656.69
2022-12-18T08:17:38.352Z,102657.41
2022-12-18T08:20:06.648Z,102651.38
2022-12-18T08:22:36.279Z,102661.81
2022-12-18T08:25:04.698Z,102663.47
2022-12-18T08:27:33.124Z,102666.81
2022-12-18T08:30:02.575Z,102661.81
2022-12-18T08:32:30.562Z,102665.31
2022-12-18T08:34:58.388Z,102650.03
2022-12-18T08:37:26.156Z,102657.34
2022-12-18T08:39:53.947Z,102660.25
2022-12-18T08:42:39.378Z,102660.59
2022-12-18T08:45:10.198Z,102653.38
2022-12-18T08:47:37.982Z,102656.44
2022-12-18T08:50:07.081Z,102653.66
2022-12-18T08:52:34.957Z,102655.06
2022-12-18T08:55:02.924Z,102649.66
2022-12-18T08:57:30.744Z,102646.81
2022-12-18T08:59:58.533Z,102642.91
2022-12-18T09:02:27.837Z,102649.47
2022-12-18T09:04:57.812Z,102648.16
2022-12-18T09:07:25.936Z,102633.81
2022-12-18T09:09:53.716Z,102638.69
2022-12-18T09:12:21.531Z,102636.63
2022-12-18T09:14:49.467Z,102640.25
2022-12-18T09:17:17.284Z,102637.09
2022-12-18T09:19:46.696Z,102638.34
2022-12-18T09:22:14.553Z,102634.28
2022-12-18T09:24:42.307Z,102630.94
2022-12-18T09:27:10.079Z,102622.03
2022-12-18T09:29:37.830Z,102618.28
2022-12-18T09:32:06.206Z,102605.91
2022-12-18T09:34:34.021Z,102610.03
2022-12-18T09:37:03.159Z,102606.44
2022-12-18T09:39:30.970Z,102597.88
2022-12-18T09:42:00.609Z,102594.41
2022-12-18T09:44:31.913Z,102598.13
2022-12-18T09:47:10.492Z,102600.13
2022-12-18T09:49:42.714Z,102591.06
2022-12-18T09:52:18.841Z,102590.63
2022-12-18T09:54:51.993Z,102581.41
2022-12-18T09:57:22.658Z,102584.94
2022-12-18T09:59:55.191Z,102579.97
2022-12-18T10:02:26.476Z,102581.66
2022-12-18T10:05:04.743Z,102567.25
2022-12-18T10:07:45.010Z,102568.44
2022-12-18T10:10:24.732Z,102568.91
2022-12-18T10:13:04.955Z,102566.66
2022-12-18T10:15:38.492Z,102562.69
2022-12-18T10:18:22.088Z,102573.16
2022-12-18T10:20:53.714Z,102562.53
2022-12-18T10:23:28.778Z,102566.75
2022-12-18T10:26:03.732Z,102560.34
2022-12-18T10:28:32.781Z,102554.25
2022-12-18T10:31:01.167Z,102556.97
2022-12-18T10:33:32.589Z,102557.06
2022-12-18T10:36:01.130Z,102557.50
2022-12-18T10:38:32.401Z,102548.78
2022-12-18T10:41:02.193Z,102557.91
2022-12-18T10:43:32.091Z,102549.78
2022-12-18T10:46:07.698Z,102553.88
2022-12-18T10:48:38.433Z,102560.09
2022-12-18T10:51:12.426Z,102566.00
2022-12-18T10:53:44.827Z,102574.31
2022-12-18T10:56:12.999Z,102569.31
2022-12-18T10:58:41.457Z,102571.28
2022-12-18T11:01:12.898Z,102583.13
2022-12-18T11:03:42.725Z,102589.91
2022-12-18T11:06:12.839Z,102589.41
2022-12-18T11:08:44.795Z,102597.75
2022-12-18T11:11:22.582Z,102594.81
2022-12-18T11:14:01.401Z,102597.34
2022-12-18T11:16:31.872Z,102593.06
2022-12-18T11:19:24.532Z,102588.81
2022-12-18T11:21:52.918Z,102581.16
2022-12-18T11:24:29.335Z,102577.53
2022-12-18T11:26:59.841Z,102567.81
2022-12-18T11:29:35.087Z,102570.09
2022-12-18T11:32:32.068Z,102567.00
2022-12-18T11:35:06.566Z,102561.28
2022-12-18T11:37:35.186Z,102562.78
2022-12-18T11:40:13.956Z,102565.38
2022-12-18T11:42:49.203Z,102566.72
2022-12-18T11:45:28.523Z,102558.34
2022-12-18T11:48:01.346Z,102557.69
2022-12-18T11:50:35.699Z,102558.34
2022-12-18T11:53:06.347Z,102563.38
2022-12-18T11:55:43.576Z,102559.22
2022-12-18T11:58:22.486Z,102547.47
2022-12-18T12:00:57.464Z,102540.91
2022-12-18T12:03:42.094Z,102530.44
2022-12-18T12:06:17.823Z,102524.97
2022-12-18T12:08:59.404Z,102529.22
2022-12-18T12:11:41.236Z,102539.56
2022-12-18T12:14:20.240Z,102536.22
2022-12-18T12:16:56.864Z,102546.28
2022-12-18T12:19:40.346Z,102546.00
2022-12-18T12:22:15.897Z,102542.50
2022-12-18T12:24:56.954Z,102541.63
2022-12-18T12:27:36.215Z,102534.75
2022-12-18T12:30:08.564Z,102532.72
2022-12-18T12:32:55.512Z,102528.09
2022-12-18T12:35:33.906Z,102525.19
2022-12-18T12:38:10.227Z,102505.66
2022-12-18T12:40:56.622Z,102505.16
2022-12-18T12:43:36.716Z,102506.69
2022-12-18T12:46:07.517Z,102502.41
2022-12-18T12:48:42.381Z,102494.78
2022-12-18T12:51:16.339Z,102495.22
2022-12-18T12:53:44.686Z,102497.09
2022-12-18T12:56:16.008Z,102509.63
2022-12-18T12:58:53.177Z,102503.84
2022-12-18T13:01:30.455Z,102498.84
2022-12-18T13:04:06.714Z,102496.16
2022-12-18T13:06:46.427Z,102498.66
2022-12-18T13:09:14.625Z,102490.78
2022-12-18T13:12:01.839Z,102483.78
2022-12-18T13:14:34.605Z,102478.50
2022-12-18T13:17:32.990Z,102479.03
2022-12-18T13:20:12.890Z,102478.25
2022-12-18T13:22:45.396Z,102486.41
2022-12-18T13:25:40.405Z,102479.66
2022-12-18T13:28:14.639Z,102474.69
2022-12-18T13:30:57.398Z,102465.34
2022-12-18T13:36:37.499Z,102458.47
2022-12-18T13:39:13.456Z,102446.66
2022-12-18T13:41:42.774Z,102441.19
2022-12-18T13:44:15.330Z,102448.41
2022-12-18T13:46:48.960Z,102461.59
2022-12-18T13:49:25.019Z,102460.81
2022-12-18T13:51:55.627Z,102454.16
2022-12-18T13:54:32.645Z,102451.66
2022-12-18T13:57:00.461Z,102460.56
2022-12-18T13:59:35.107Z,102463.34
2022-12-18T14:02:16.385Z,102461.91
2022-12-18T14:04:47.727Z,102452.69
2022-12-18T14:07:18.853Z,102448.91
2022-12-18T14:09:49.911Z,102438.88
2022-12-18T14:12:37.920Z,102439.25
2022-12-18T14:15:07.935Z,102442.81
2022-12-18T14:17:38.437Z,102442.56
2022-12-18T14:20:15.319Z,102437.75
2022-12-18T14:22:47.044Z,102439.00
2022-12-18T14:25:21.588Z,102433.25
2022-12-18T14:27:52.619Z,102441.50
2022-12-18T14:30:32.559Z,102429.69
2022-12-18T14:33:06.803Z,102435.22
2022-12-18T14:35:36.090Z,102438.13
2022-12-18T14:38:23.444Z,102435.28
2022-12-18T14:40:55.277Z,102435.59
2022-12-18T14:43:23.547Z,102426.78
2022-12-18T14:45:52.618Z,102429.09
2022-12-18T14:48:24.462Z,102420.28
2022-12-18T14:51:02.139Z,102438.09
2022-12-18T14:53:42.289Z,102449.81
2022-12-18T14:56:22.875Z,102452.56
2022-12-18T14:58:52.660Z,102456.69
2022-12-18T15:01:26.648Z,102459.88
2022-12-18T15:03:57.753Z,102453.81
2022-12-18T15:06:43.820Z,102452.59
2022-12-18T15:09:25.417Z,102455.94
2022-12-18T15:11:58.826Z,102440.28
2022-12-18T15:14:35.674Z,102443.50
2022-12-18T15:17:07.132Z,102443.22
2022-12-18T15:19:40.980Z,102442.16
2022-12-18T15:22:20.706Z,102435.16
2022-12-18T15:24:50.804Z,102425.59
2022-12-18T15:27:26.233Z,102423.03
2022-12-18T15:30:22.344Z,102421.81
2022-12-18T15:32:50.964Z,102419.84
2022-12-18T15:35:23.006Z,102408.47
2022-12-18T15:37:51.763Z,102425.66
2022-12-18T15:40:21.457Z,102430.81
2022-12-18T15:43:08.102Z,102428.09
2022-12-18T15:45:36.051Z,102437.50
2022-12-18T15:48:03.869Z,102444.97
2022-12-18T15:50:32.990Z,102438.72
2022-12-18T15:53:00.751Z,102428.38
2022-12-18T15:55:46.755Z,102418.84
2022-12-18T15:58:14.538Z,102412.63
2022-12-18T16:00:43.796Z,102414.41
2022-12-18T16:03:14.572Z,102397.88
2022-12-18T16:05:43.757Z,102394.25
2022-12-18T16:08:11.471Z,102376.91
2022-12-18T16:10:39.281Z,102394.09
2022-12-18T16:13:08.341Z,102391.66
2022-12-18T16:15:36.137Z,102378.59
2022-12-18T16:18:04.094Z,102382.84
2022-12-18T16:20:31.855Z,102377.53
2022-12-18T16:23:01.139Z,102369.78
2022-12-18T16:25:30.746Z,102365.66
2022-12-18T16:27:58.707Z,102363.22
2022-12-18T16:30:28.856Z,102348.47
2022-12-18T16:33:01.250Z,102341.78
2022-12-18T16:35:29.163Z,102330.38
2022-12-18T16:37:56.909Z,102330.38
2022-12-18T16:40:25.989Z,102328.59
2022-12-18T16:42:53.757Z,102319.91
2022-12-18T16:45:21.717Z,102316.44
2022-12-18T16:47:50.702Z,102308.66
2022-12-18T16:50:18.602Z,102311.25
2022-12-18T16:52:46.411Z,102317.19
2022-12-18T16:55:14.138Z,102322.22
2022-12-18T16:57:43.341Z,102331.63
2022-12-18T17:00:12.775Z,102323.59
2022-12-18T17:02:40.876Z,102327.09
2022-12-18T17:05:09.171Z,102338.19
2022-12-18T17:07:39.508Z,102345.03
2022-12-18T17:10:08.058Z,102344.16
2022-12-18T17:12:37.308Z,102339.72
2022-12-18T17:15:07.696Z,102338.03
2022-12-18T17:17:36.530Z,102329.41
2022-12-18T17:20:07.394Z,102319.22
2022-12-18T17:22:35.122Z,102314.03
2022-12-18T17:25:02.900Z,102316.78
2022-12-18T17:27:30.699Z,102314.19
2022-12-18T17:29:58.508Z,102302.31
2022-12-18T17:32:27.863Z,102305.78
2022-12-18T17:34:55.714Z,102312.94
2022-12-18T17:37:25.501Z,102318.25
2022-12-18T17:39:54.249Z,102319.31
2022-12-18T17:42:22.081Z,102320.63
2022-12-18T17:44:49.879Z,102308.00
2022-12-18T17:47:17.724Z,102305.56
2022-12-18T17:49:47.050Z,102296.28
2022-12-18T17:52:15.031Z,102289.72
2022-12-18T17:54:44.017Z,102293.34
2022-12-18T17:57:11.970Z,102296.06
2022-12-18T17:59:39.742Z,102292.84
2022-12-18T18:02:08.130Z,102300.75
2022-12-18T18:04:36.705Z,102298.44
2022-12-18T18:07:05.874Z,102294.47
2022-12-18T18:09:33.882Z,102274.81
2022-12-18T18:12:19.377Z,102276.66
2022-12-18T18:14:47.302Z,102280.28
2022-12-18T18:17:15.492Z,102269.19
2022-12-18T18:19:44.227Z,102276.28
2022-12-18T18:22:19.033Z,102264.31
2022-12-18T18:24:47.059Z,102265.34
2022-12-18T18:27:14.986Z,102268.81
2022-12-18T18:29:42.922Z,102265.34
2022-12-18T18:32:10.905Z,102265.47
2022-12-18T18:34:38.712Z,102258.47
2022-12-18T18:37:06.468Z,102249.19
2022-12-18T18:39:35.708Z,102258.16
2022-12-18T18:42:03.661Z,102249.75
2022-12-18T18:44:31.777Z,102246.41
2022-12-18T18:47:00.608Z,102242.88
2022-12-18T18:49:30.147Z,102238.78
2022-12-18T18:51:59.141Z,102234.38
2022-12-18T18:54:27.427Z,102218.09
2022-12-18T18:57:19.531Z,102209.56
2022-12-18T18:59:44.535Z,102207.84
2022-12-18T19:02:13.168Z,102206.34
2022-12-18T19:04:46.290Z,102216.69
2022-12-18T19:07:17.735Z,102217.59
2022-12-18T19:09:57.914Z,102210.72
2022-12-18T19:12:49.223Z,102213.47
2022-12-18T19:15:17.011Z,102205.69
2022-12-18T19:17:46.956Z,102202.22
2022-12-18T19:20:15.155Z,102200.66
2022-12-18T19:22:43.228Z,102194.88
2022-12-18T19:25:12.570Z,102187.22
2022-12-18T19:27:41.902Z,102183.13
2022-12-18T19:30:11.398Z,102185.84
2022-12-18T19:32:39.195Z,102166.03
2022-12-18T19:35:07.762Z,102166.19
2022-12-18T19:37:35.762Z,102162.94
2022-12-18T19:40:12.046Z,102159.59
2022-12-18T19:42:42.015Z,102165.81
2022-12-18T19:45:10.822Z,102164.25
2022-12-18T19:47:38.749Z,102165.28
2022-12-18T19:50:07.641Z,102164.53
2022-12-18T19:52:35.525Z,102166.22
2022-12-18T19:55:03.319Z,102155.22
2022-12-18T19:57:32.714Z,102158.59
2022-12-18T20:00:02.029Z,102153.56
2022-12-18T20:02:40.346Z,102162.84
2022-12-18T20:05:11.095Z,102162.84
2022-12-18T20:07:39.398Z,102146.56
2022-12-18T20:10:14.305Z,102157.03
2022-12-18T20:12:42.915Z,102150.03
2022-12-18T20:15:12.872Z,102150.84
2022-12-18T20:17:40.746Z,102150.69
2022-12-18T20:20:09.718Z,102150.56
2022-12-18T20:22:38.022Z,102156.63
2022-12-18T20:25:06.583Z,102169.56
2022-12-18T20:27:34.426Z,102171.25
2022-12-18T20:30:02.306Z,102172.16
2022-12-18T20:32:36.895Z,102164.41
2022-12-18T20:35:05.851Z,102160.00
2022-12-18T20:37:34.380Z,102164.41
2022-12-18T20:40:06.291Z,102151.59
2022-12-18T20:42:36.246Z,102150.19
2022-12-18T20:45:04.110Z,102141.53
2022-12-18T20:47:33.219Z,102138.94
2022-12-18T20:50:01.155Z,102153.66
2022-12-18T20:52:28.894Z,102156.38
2022-12-18T20:54:56.797Z,102140.72
2022-12-18T20:57:26.246Z,102134.78
2022-12-18T20:59:54.004Z,102144.38
2022-12-18T21:02:21.869Z,102130.66
2022-12-18T21:04:51.496Z,102110.88
2022-12-18T21:07:19.239Z,102101.44
2022-12-18T21:09:46.988Z,102107.63
2022-12-18T21:12:42.672Z,102099.13
2022-12-18T21:15:16.729Z,102093.16
2022-12-18T21:17:45.387Z,102085.50
2022-12-18T21:20:17.605Z,102092.53
2022-12-18T21:22:46.724Z,102079.72
2022-12-18T21:25:14.747Z,102075.56
2022-12-18T21:27:42.565Z,102075.56
2022-12-18T21:30:11.124Z,102082.66
2022-12-18T21:32:39.217Z,102084.59
2022-12-18T21:35:07.549Z,102076.97
2022-12-18T21:37:36.841Z,102076.31
2022-12-18T21:40:06.094Z,102086.78
2022-12-18T21:42:51.884Z,102079.03
2022-12-18T21:45:19.687Z,102072.94
2022-12-18T21:47:47.398Z,102070.50
2022-12-18T21:50:15.126Z,102068.94
2022-12-18T21:52:44.734Z,102069.72
2022-12-18T21:55:12.518Z,102061.03
2022-12-18T21:57:40.336Z,102068.03
2022-12-18T22:00:19.080Z,102055.09
2022-12-18T22:02:48.470Z,102043.19
2022-12-18T22:05:35.741Z,102040.72
2022-12-18T22:08:05.117Z,102033.09
2022-12-18T22:10:33.209Z,102034.88
2022-12-18T22:13:01.134Z,102045.50
2022-12-18T22:15:29.377Z,102042.16
2022-12-18T22:17:59.959Z,102030.13
2022-12-18T22:20:30.056Z,102028.69
2022-12-18T22:22:58.186Z,102010.69
2022-12-18T22:25:27.336Z,102016.91
2022-12-18T22:28:12.563Z,102026.50
2022-12-18T22:30:40.814Z,102005.09
2022-12-18T22:33:08.643Z,102010.41
2022-12-18T22:35:36.406Z,102014.16
2022-12-18T22:38:04.171Z,102005.75
2022-12-18T22:40:33.343Z,101983.88
2022-12-18T22:43:01.372Z,101978.00
2022-12-18T22:45:29.216Z,101989.66
2022-12-18T22:47:57.078Z,101971.91
2022-12-18T22:50:24.915Z,101980.84
2022-12-18T22:52:52.693Z,101976.66
2022-12-18T22:55:20.875Z,101984.44
2022-12-18T22:57:52.814Z,101983.69
2022-12-18T23:00:23.921Z,101983.94
2022-12-18T23:02:59.302Z,101980.66
2022-12-18T23:05:29.549Z,101971.09
2022-12-18T23:07:58.434Z,101964.09
2022-12-18T23:10:27.344Z,101966.81
2022-12-18T23:12:56.538Z,101961.91
2022-12-18T23:15:27.609Z,101954.75
2022-12-18T23:17:57.008Z,101955.00
2022-12-18T23:20:24.936Z,101948.25
2022-12-18T23:22:52.907Z,101956.97
2022-12-18T23:25:20.713Z,101956.97
2022-12-18T23:27:48.494Z,101943.09
2022-12-18T23:30:17.812Z,101938.03
2022-12-18T23:32:45.669Z,101938.84
2022-12-18T23:35:15.497Z,101931.94
2022-12-18T23:38:00.093Z,101923.38
2022-12-18T23:40:29.659Z,101928.47
2022-12-18T23:42:57.498Z,101914.59
2022-12-18T23:45:26.743Z,101891.38
2022-12-18T23:47:54.459Z,101881.16
2022-12-18T23:50:28.881Z,101888.78
2022-12-18T23:53:05.090Z,101879.44
2022-12-18T23:55:35.221Z,101895.81
2022-12-18T23:58:03.023Z,101903.69
